createdAt,value
2023-11-21T00:02:55.077Z,8.39
2023-11-21T00:07:58.748Z,8.38
2023-11-21T00:13:03.902Z,8.38
2023-11-21T00:18:07.921Z,8.35
2023-11-21T00:23:11.797Z,8.37
2023-11-21T00:28:15.434Z,8.32
2023-11-21T00:33:18.891Z,8.23
2023-11-21T00:38:22.716Z,8.00
2023-11-21T00:43:26.345Z,7.83
2023-11-21T00:48:29.892Z,7.79
2023-11-21T00:53:33.609Z,7.87
2023-11-21T00:58:36.993Z,7.90
2023-11-21T01:03:40.642Z,7.91
2023-11-21T01:08:46.162Z,7.92
2023-11-21T01:13:49.767Z,7.99
2023-11-21T01:18:53.480Z,8.04
2023-11-21T01:23:56.862Z,8.13
2023-11-21T01:29:00.429Z,8.21
2023-11-21T01:34:04.524Z,8.26
2023-11-21T01:39:09.948Z,8.19
2023-11-21T01:44:14.462Z,8.16
2023-11-21T01:49:19.060Z,8.12
2023-11-21T01:54:23.530Z,8.02
2023-11-21T01:59:28.592Z,7.96
2023-11-21T02:04:38.287Z,7.84
2023-11-21T02:09:43.775Z,7.73
2023-11-21T02:14:47.704Z,7.63
2023-11-21T02:19:52.443Z,7.53
2023-11-21T02:24:56.072Z,7.44
2023-11-21T02:30:00.922Z,7.28
2023-11-21T02:35:08.927Z,7.10
2023-11-21T02:40:19.101Z,6.92
2023-11-21T02:45:23.445Z,6.75
2023-11-21T02:50:28.113Z,6.60
2023-11-21T02:55:32.173Z,6.48
2023-11-21T03:00:36.007Z,6.35
2023-11-21T03:05:39.675Z,6.26
2023-11-21T03:10:43.314Z,6.19
2023-11-21T03:15:47.004Z,6.13
2023-11-21T03:20:53.576Z,6.10
2023-11-21T03:25:57.214Z,6.03
2023-11-21T03:31:00.980Z,5.97
2023-11-21T03:36:05.128Z,5.90
2023-11-21T03:41:11.269Z,5.84
2023-11-21T03:46:15.117Z,5.76
2023-11-21T03:51:18.715Z,5.70
2023-11-21T03:56:24.990Z,5.58
2023-11-21T04:01:28.714Z,5.51
2023-11-21T04:06:33.995Z,5.41
2023-11-21T04:11:37.615Z,5.36
2023-11-21T04:16:43.228Z,5.33
2023-11-21T04:21:47.231Z,5.34
2023-11-21T04:26:50.831Z,5.35
2023-11-21T04:31:55.366Z,5.32
2023-11-21T04:36:58.838Z,5.31
2023-11-21T04:42:03.411Z,5.29
2023-11-21T04:47:07.078Z,5.29
2023-11-21T04:52:11.026Z,5.24
2023-11-21T04:57:15.311Z,5.26
2023-11-21T05:02:30.532Z,5.35
2023-11-21T05:07:40.754Z,5.54
2023-11-21T05:12:44.535Z,5.77
2023-11-21T05:17:51.128Z,5.84
2023-11-21T05:22:54.953Z,5.85
2023-11-21T05:28:02.333Z,5.86
2023-11-21T05:33:06.630Z,5.87
2023-11-21T05:38:10.064Z,5.78
2023-11-21T05:43:13.679Z,5.78
2023-11-21T05:48:17.101Z,5.79
2023-11-21T05:53:20.884Z,5.82
2023-11-21T05:58:25.141Z,6.00
2023-11-21T06:03:29.819Z,5.96
2023-11-21T06:08:34.491Z,5.88
2023-11-21T06:13:39.088Z,5.88
2023-11-21T06:18:42.876Z,6.01
2023-11-21T06:23:46.585Z,6.12
2023-11-21T06:28:52.557Z,6.26
2023-11-21T06:33:56.657Z,6.37
2023-11-21T06:39:00.422Z,6.54
2023-11-21T06:44:05.869Z,6.68
2023-11-21T06:49:10.059Z,6.85
2023-11-21T06:54:14.739Z,7.03
2023-11-21T06:59:18.804Z,7.10
2023-11-21T07:04:22.359Z,7.17
2023-11-21T07:09:26.944Z,7.18
2023-11-21T07:14:30.517Z,7.19
2023-11-21T07:19:34.145Z,7.20
2023-11-21T07:24:38.489Z,7.23
2023-11-21T07:29:42.349Z,7.27
2023-11-21T07:34:46.527Z,7.30
2023-11-21T07:39:50.198Z,7.35
2023-11-21T07:44:54.226Z,7.40
2023-11-21T07:49:57.771Z,7.42
2023-11-21T07:55:01.428Z,7.49
2023-11-21T08:00:10.658Z,7.59
2023-11-21T08:05:24.757Z,7.62
2023-11-21T08:10:32.120Z,7.65
2023-11-21T08:15:36.830Z,7.69
2023-11-21T08:20:41.081Z,7.71
2023-11-21T08:25:48.310Z,7.83
2023-11-21T08:30:51.906Z,7.87
2023-11-21T08:35:56.108Z,7.95
2023-11-21T08:40:59.853Z,8.02
2023-11-21T08:46:04.306Z,8.08
2023-11-21T08:51:15.382Z,8.15
2023-11-21T08:56:19.764Z,8.20
2023-11-21T09:01:24.512Z,8.25
2023-11-21T09:06:28.440Z,8.32
2023-11-21T09:11:35.023Z,8.42
2023-11-21T09:16:39.965Z,8.48
2023-11-21T09:21:43.645Z,8.54
2023-11-21T09:26:47.160Z,8.57
2023-11-21T09:31:53.235Z,8.60
2023-11-21T09:36:56.789Z,8.69
2023-11-21T09:42:37.489Z,8.82
2023-11-21T09:47:41.233Z,8.92
2023-11-21T09:53:11.705Z,9.02
2023-11-21T09:58:16.340Z,9.07
2023-11-21T10:03:20.530Z,9.14
2023-11-21T10:08:38.935Z,9.22
2023-11-21T10:13:55.236Z,9.11
2023-11-21T10:19:09.026Z,8.90
2023-11-21T10:24:15.354Z,8.85
2023-11-21T10:29:19.761Z,8.76
2023-11-21T10:34:23.701Z,8.79
2023-11-21T10:39:31.872Z,8.78
2023-11-21T10:44:35.919Z,8.79
2023-11-21T10:49:41.651Z,8.80
2023-11-21T10:54:45.826Z,8.87
2023-11-21T10:59:53.252Z,9.01
2023-11-21T11:04:58.263Z,9.17
2023-11-21T11:10:02.013Z,9.30
2023-11-21T11:15:06.834Z,9.46
2023-11-21T11:20:23.302Z,9.65
2023-11-21T11:25:39.866Z,9.73
2023-11-21T11:31:18.298Z,9.75
2023-11-21T11:37:05.073Z,9.83
2023-11-21T11:42:13.439Z,9.87
2023-11-21T11:47:24.124Z,9.85
2023-11-21T11:52:44.169Z,9.97
2023-11-21T11:57:56.485Z,10.04
2023-11-21T12:03:04.805Z,10.01
2023-11-21T12:08:09.196Z,9.94
2023-11-21T12:13:16.231Z,9.90
2023-11-21T12:18:19.829Z,9.86
2023-11-21T12:23:23.561Z,9.86
2023-11-21T12:28:28.466Z,9.83
2023-11-21T12:33:32.003Z,9.84
2023-11-21T12:38:38.764Z,9.85
2023-11-21T12:43:42.499Z,9.85
2023-11-21T12:48:46.999Z,9.90
2023-11-21T12:53:51.167Z,9.86
2023-11-21T12:58:58.313Z,9.86
2023-11-21T13:04:03.442Z,9.82
2023-11-21T13:09:07.153Z,9.72
2023-11-21T13:14:12.436Z,9.63
2023-11-21T13:19:16.449Z,9.52
2023-11-21T13:24:20.037Z,9.47
2023-11-21T13:29:26.803Z,9.44
2023-11-21T13:34:34.135Z,9.35
2023-11-21T13:39:39.272Z,9.28
2023-11-21T13:44:46.256Z,9.24
2023-11-21T13:49:50.549Z,9.20
2023-11-21T13:54:54.759Z,9.20
2023-11-21T14:00:00.045Z,9.18
2023-11-21T14:05:10.392Z,9.20
2023-11-21T14:10:15.750Z,9.15
2023-11-21T14:15:20.483Z,9.07
2023-11-21T14:20:25.118Z,9.02
2023-11-21T14:25:29.545Z,8.94
2023-11-21T14:30:36.761Z,8.86
2023-11-21T14:35:40.343Z,8.72
2023-11-21T14:40:43.959Z,8.58
2023-11-21T14:45:47.572Z,8.44
2023-11-21T14:51:02.997Z,8.26
2023-11-21T14:56:08.926Z,8.11
2023-11-21T15:01:12.535Z,7.89
2023-11-21T15:06:22.299Z,7.70
2023-11-21T15:11:31.408Z,7.55
2023-11-21T15:16:41.506Z,7.39
2023-11-21T15:21:47.063Z,7.20
2023-11-21T15:26:51.583Z,7.09
2023-11-21T15:31:57.494Z,6.96
2023-11-21T15:37:01.476Z,6.80
2023-11-21T15:42:06.601Z,6.64
2023-11-21T15:47:10.298Z,6.53
2023-11-21T15:52:14.358Z,6.45
2023-11-21T15:57:19.536Z,6.32
2023-11-21T16:02:23.166Z,6.21
2023-11-21T16:07:26.790Z,6.06
2023-11-21T16:12:30.180Z,5.90
2023-11-21T16:17:34.995Z,5.74
2023-11-21T16:22:39.795Z,5.62
2023-11-21T16:27:44.582Z,5.54
2023-11-21T16:32:51.008Z,5.42
2023-11-21T16:37:54.678Z,5.32
2023-11-21T16:42:58.288Z,5.22
2023-11-21T16:48:04.021Z,5.05
2023-11-21T16:53:08.425Z,4.94
2023-11-21T16:58:12.300Z,4.82
2023-11-21T17:03:16.103Z,4.76
2023-11-21T17:08:20.747Z,4.70
2023-11-21T17:13:24.231Z,4.66
2023-11-21T17:18:28.448Z,4.61
2023-11-21T17:23:34.054Z,4.52
2023-11-21T17:28:38.778Z,4.48
2023-11-21T17:33:43.126Z,4.40
2023-11-21T17:38:47.352Z,4.35
2023-11-21T17:43:51.489Z,4.33
2023-11-21T17:48:55.902Z,4.30
2023-11-21T17:54:02.790Z,4.33
2023-11-21T17:59:07.510Z,4.39
2023-11-21T18:04:13.811Z,4.34
2023-11-21T18:09:18.212Z,4.29
2023-11-21T18:14:21.955Z,4.27
2023-11-21T18:19:25.627Z,4.22
2023-11-21T18:24:29.525Z,4.20
2023-11-21T18:29:33.368Z,4.11
2023-11-21T18:34:37.690Z,4.16
2023-11-21T18:39:41.198Z,4.14
2023-11-21T18:44:55.187Z,4.08
2023-11-21T18:50:02.627Z,3.98
2023-11-21T18:55:07.865Z,3.88
2023-11-21T19:00:13.540Z,3.81
2023-11-21T19:05:18.102Z,3.74
2023-11-21T19:10:22.482Z,3.65
2023-11-21T19:15:26.504Z,3.58
2023-11-21T19:20:30.258Z,3.52
2023-11-21T19:25:34.631Z,3.46
2023-11-21T19:30:41.245Z,3.44
2023-11-21T19:35:46.774Z,3.43
2023-11-21T19:40:50.730Z,3.41
2023-11-21T19:45:54.309Z,3.42
2023-11-21T19:50:57.926Z,3.35
2023-11-21T19:56:15.910Z,3.36
2023-11-21T20:01:20.986Z,3.34
2023-11-21T20:06:25.717Z,3.32
2023-11-21T20:11:32.772Z,3.34
2023-11-21T20:16:41.650Z,3.31
2023-11-21T20:21:47.334Z,3.27
2023-11-21T20:26:51.283Z,3.22
2023-11-21T20:31:54.951Z,3.14
2023-11-21T20:36:59.299Z,3.09
2023-11-21T20:42:03.088Z,3.05
2023-11-21T20:47:12.227Z,2.98
2023-11-21T20:52:16.788Z,2.93
2023-11-21T20:57:20.452Z,2.91
2023-11-21T21:02:25.301Z,2.85
2023-11-21T21:07:30.382Z,2.79
2023-11-21T21:12:33.935Z,2.77
2023-11-21T21:17:41.798Z,2.72
2023-11-21T21:22:46.328Z,2.67
2023-11-21T21:27:50.194Z,2.60
2023-11-21T21:32:53.696Z,2.56
2023-11-21T21:37:57.935Z,2.54
2023-11-21T21:43:02.291Z,2.51
2023-11-21T21:48:06.589Z,2.47
2023-11-21T21:53:13.698Z,2.41
2023-11-21T21:58:17.272Z,2.36
2023-11-21T22:03:21.074Z,2.30
2023-11-21T22:08:28.879Z,2.18
2023-11-21T22:13:32.492Z,2.07
2023-11-21T22:18:38.300Z,1.99
2023-11-21T22:23:41.966Z,1.96
2023-11-21T22:28:45.793Z,1.94
2023-11-21T22:33:49.394Z,2.03
2023-11-21T22:38:52.943Z,2.11
2023-11-21T22:43:56.633Z,2.16
2023-11-21T22:49:00.332Z,2.14
2023-11-21T22:54:04.249Z,2.11
2023-11-21T22:59:07.851Z,2.07
2023-11-21T23:04:11.640Z,2.01
2023-11-21T23:09:17.078Z,1.95
2023-11-21T23:14:20.784Z,1.82
2023-11-21T23:19:24.963Z,1.73
2023-11-21T23:24:29.105Z,1.71
2023-11-21T23:29:32.720Z,1.69
2023-11-21T23:34:38.863Z,1.67
2023-11-21T23:39:42.379Z,1.62
2023-11-21T23:44:48.493Z,1.66
2023-11-21T23:49:53.009Z,1.68
2023-11-21T23:54:57.760Z,1.70
